sensor_id;sensor_type;location;lat;lon;timestamp;P1;durP1;ratioP1;P2;durP2;ratioP2
67715;SDS011;54508;43.238;25.306;2023-04-05T00:01:29;4.13;;;2.00;;
67715;SDS011;54508;43.238;25.306;2023-04-05T00:03:56;2.28;;;2.08;;
67715;SDS011;54508;43.238;25.306;2023-04-05T00:06:25;3.30;;;2.10;;
67715;SDS011;54508;43.238;25.306;2023-04-05T00:08:58;2.60;;;2.20;;
67715;SDS011;54508;43.238;25.306;2023-04-05T00:11:28;2.45;;;2.15;;
67715;SDS011;54508;43.238;25.306;2023-04-05T00:13:55;2.50;;;2.30;;
67715;SDS011;54508;43.238;25.306;2023-04-05T00:16:20;3.05;;;2.33;;
67715;SDS011;54508;43.238;25.306;2023-04-05T00:18:46;2.80;;;2.30;;
67715;SDS011;54508;43.238;25.306;2023-04-05T00:21:16;3.45;;;2.65;;
67715;SDS011;54508;43.238;25.306;2023-04-05T00:23:42;3.03;;;2.60;;
67715;SDS011;54508;43.238;25.306;2023-04-05T00:26:09;3.17;;;2.60;;
67715;SDS011;54508;43.238;25.306;2023-04-05T00:28:35;3.65;;;2.83;;
67715;SDS011;54508;43.238;25.306;2023-04-05T00:31:02;3.00;;;2.70;;
67715;SDS011;54508;43.238;25.306;2023-04-05T00:33:28;2.72;;;2.53;;
67715;SDS011;54508;43.238;25.306;2023-04-05T00:35:53;3.40;;;3.10;;
67715;SDS011;54508;43.238;25.306;2023-04-05T00:38:19;4.50;;;2.87;;
67715;SDS011;54508;43.238;25.306;2023-04-05T00:40:44;3.40;;;3.08;;
67715;SDS011;54508;43.238;25.306;2023-04-05T00:43:10;4.53;;;3.17;;
67715;SDS011;54508;43.238;25.306;2023-04-05T00:45:35;3.40;;;2.80;;
67715;SDS011;54508;43.238;25.306;2023-04-05T00:48:01;4.40;;;2.63;;
67715;SDS011;54508;43.238;25.306;2023-04-05T00:50:27;3.30;;;3.00;;
67715;SDS011;54508;43.238;25.306;2023-04-05T00:52:55;4.43;;;3.47;;
67715;SDS011;54508;43.238;25.306;2023-04-05T00:55:21;3.80;;;3.22;;
67715;SDS011;54508;43.238;25.306;2023-04-05T00:57:47;3.80;;;3.40;;
67715;SDS011;54508;43.238;25.306;2023-04-05T01:00:14;3.53;;;3.22;;
67715;SDS011;54508;43.238;25.306;2023-04-05T01:05:19;3.78;;;3.42;;
67715;SDS011;54508;43.238;25.306;2023-04-05T01:07:50;4.22;;;3.60;;
67715;SDS011;54508;43.238;25.306;2023-04-05T01:10:17;4.43;;;3.63;;
67715;SDS011;54508;43.238;25.306;2023-04-05T01:12:45;4.30;;;3.67;;
67715;SDS011;54508;43.238;25.306;2023-04-05T01:15:11;3.90;;;3.50;;
67715;SDS011;54508;43.238;25.306;2023-04-05T01:17:36;3.90;;;3.50;;
67715;SDS011;54508;43.238;25.306;2023-04-05T01:20:12;4.53;;;3.95;;
67715;SDS011;54508;43.238;25.306;2023-04-05T01:34:16;4.20;;;3.80;;
67715;SDS011;54508;43.238;25.306;2023-04-05T01:36:49;4.43;;;3.83;;
67715;SDS011;54508;43.238;25.306;2023-04-05T01:39:19;4.07;;;3.78;;
67715;SDS011;54508;43.238;25.306;2023-04-05T01:41:46;4.50;;;3.23;;
67715;SDS011;54508;43.238;25.306;2023-04-05T01:44:11;4.50;;;3.63;;
67715;SDS011;54508;43.238;25.306;2023-04-05T01:46:37;4.33;;;3.93;;
67715;SDS011;54508;43.238;25.306;2023-04-05T01:49:02;4.67;;;3.53;;
67715;SDS011;54508;43.238;25.306;2023-04-05T01:51:28;4.13;;;3.70;;
67715;SDS011;54508;43.238;25.306;2023-04-05T01:53:54;4.25;;;3.85;;
67715;SDS011;54508;43.238;25.306;2023-04-05T01:56:19;4.22;;;3.80;;
67715;SDS011;54508;43.238;25.306;2023-04-05T01:58:45;4.60;;;4.10;;
67715;SDS011;54508;43.238;25.306;2023-04-05T02:01:10;4.30;;;3.90;;
67715;SDS011;54508;43.238;25.306;2023-04-05T02:03:36;4.68;;;4.22;;
67715;SDS011;54508;43.238;25.306;2023-04-05T02:06:01;4.60;;;4.00;;
67715;SDS011;54508;43.238;25.306;2023-04-05T02:08:26;5.87;;;4.57;;
67715;SDS011;54508;43.238;25.306;2023-04-05T02:10:52;4.47;;;4.07;;
67715;SDS011;54508;43.238;25.306;2023-04-05T02:13:18;4.30;;;3.78;;
67715;SDS011;54508;43.238;25.306;2023-04-05T02:15:49;4.68;;;4.28;;
67715;SDS011;54508;43.238;25.306;2023-04-05T02:18:15;5.57;;;4.10;;
67715;SDS011;54508;43.238;25.306;2023-04-05T02:20:45;4.57;;;4.10;;
67715;SDS011;54508;43.238;25.306;2023-04-05T02:23:13;4.40;;;4.00;;
67715;SDS011;54508;43.238;25.306;2023-04-05T02:25:38;5.00;;;4.50;;
67715;SDS011;54508;43.238;25.306;2023-04-05T02:28:04;5.32;;;4.07;;
67715;SDS011;54508;43.238;25.306;2023-04-05T02:30:29;4.00;;;3.63;;
67715;SDS011;54508;43.238;25.306;2023-04-05T02:32:55;4.82;;;4.32;;
67715;SDS011;54508;43.238;25.306;2023-04-05T02:35:21;4.53;;;4.13;;
67715;SDS011;54508;43.238;25.306;2023-04-05T02:37:47;6.72;;;4.30;;
67715;SDS011;54508;43.238;25.306;2023-04-05T02:40:13;4.40;;;4.00;;
67715;SDS011;54508;43.238;25.306;2023-04-05T02:42:39;4.80;;;3.97;;
67715;SDS011;54508;43.238;25.306;2023-04-05T02:45:05;5.20;;;4.47;;
67715;SDS011;54508;43.238;25.306;2023-04-05T02:47:32;4.18;;;3.50;;
67715;SDS011;54508;43.238;25.306;2023-04-05T02:49:58;5.13;;;3.90;;
67715;SDS011;54508;43.238;25.306;2023-04-05T02:52:24;3.90;;;3.50;;
67715;SDS011;54508;43.238;25.306;2023-04-05T02:54:49;5.83;;;4.27;;
67715;SDS011;54508;43.238;25.306;2023-04-05T02:57:14;4.73;;;3.90;;
67715;SDS011;54508;43.238;25.306;2023-04-05T02:59:40;4.90;;;4.05;;
67715;SDS011;54508;43.238;25.306;2023-04-05T03:02:07;4.53;;;3.77;;
67715;SDS011;54508;43.238;25.306;2023-04-05T03:04:33;5.43;;;4.68;;
67715;SDS011;54508;43.238;25.306;2023-04-05T03:06:59;4.47;;;4.07;;
67715;SDS011;54508;43.238;25.306;2023-04-05T03:09:27;4.63;;;3.90;;
67715;SDS011;54508;43.238;25.306;2023-04-05T03:12:01;4.95;;;4.00;;
67715;SDS011;54508;43.238;25.306;2023-04-05T03:14:28;6.57;;;3.90;;
67715;SDS011;54508;43.238;25.306;2023-04-05T03:16:54;6.03;;;3.55;;
67715;SDS011;54508;43.238;25.306;2023-04-05T03:19:20;4.40;;;4.00;;
67715;SDS011;54508;43.238;25.306;2023-04-05T03:21:49;3.80;;;3.50;;
67715;SDS011;54508;43.238;25.306;2023-04-05T03:24:15;4.85;;;3.70;;
67715;SDS011;54508;43.238;25.306;2023-04-05T03:26:44;4.72;;;3.60;;
67715;SDS011;54508;43.238;25.306;2023-04-05T03:29:10;5.22;;;4.55;;
67715;SDS011;54508;43.238;25.306;2023-04-05T03:31:36;5.07;;;3.80;;
67715;SDS011;54508;43.238;25.306;2023-04-05T03:34:01;4.10;;;3.50;;
67715;SDS011;54508;43.238;25.306;2023-04-05T03:36:29;6.88;;;3.70;;
67715;SDS011;54508;43.238;25.306;2023-04-05T03:39:05;5.97;;;3.70;;
67715;SDS011;54508;43.238;25.306;2023-04-05T03:41:34;4.18;;;3.78;;
67715;SDS011;54508;43.238;25.306;2023-04-05T03:44:01;5.55;;;3.80;;
67715;SDS011;54508;43.238;25.306;2023-04-05T03:46:26;4.00;;;3.60;;
67715;SDS011;54508;43.238;25.306;2023-04-05T03:48:52;10.53;;;4.13;;
67715;SDS011;54508;43.238;25.306;2023-04-05T03:51:17;3.60;;;3.23;;
67715;SDS011;54508;43.238;25.306;2023-04-05T03:53:43;4.32;;;3.55;;
67715;SDS011;54508;43.238;25.306;2023-04-05T03:56:09;3.88;;;3.50;;
67715;SDS011;54508;43.238;25.306;2023-04-05T03:58:35;3.53;;;3.23;;
67715;SDS011;54508;43.238;25.306;2023-04-05T04:01:01;3.95;;;3.58;;
67715;SDS011;54508;43.238;25.306;2023-04-05T04:03:26;4.03;;;3.43;;
67715;SDS011;54508;43.238;25.306;2023-04-05T04:05:52;4.20;;;3.50;;
67715;SDS011;54508;43.238;25.306;2023-04-05T04:08:18;4.38;;;3.28;;
67715;SDS011;54508;43.238;25.306;2023-04-05T04:10:46;3.80;;;3.40;;
67715;SDS011;54508;43.238;25.306;2023-04-05T04:13:12;3.80;;;3.37;;
67715;SDS011;54508;43.238;25.306;2023-04-05T04:15:37;4.57;;;3.37;;
67715;SDS011;54508;43.238;25.306;2023-04-05T04:18:03;3.53;;;3.15;;
67715;SDS011;54508;43.238;25.306;2023-04-05T04:20:28;3.55;;;3.25;;
67715;SDS011;54508;43.238;25.306;2023-04-05T04:22:55;4.20;;;3.10;;
67715;SDS011;54508;43.238;25.306;2023-04-05T04:25:21;3.55;;;3.22;;
67715;SDS011;54508;43.238;25.306;2023-04-05T04:27:47;3.87;;;3.47;;
67715;SDS011;54508;43.238;25.306;2023-04-05T04:30:14;3.63;;;3.33;;
67715;SDS011;54508;43.238;25.306;2023-04-05T04:32:40;3.47;;;3.03;;
67715;SDS011;54508;43.238;25.306;2023-04-05T04:35:15;5.18;;;3.38;;
67715;SDS011;54508;43.238;25.306;2023-04-05T04:37:45;3.60;;;3.30;;
67715;SDS011;54508;43.238;25.306;2023-04-05T04:40:14;4.25;;;3.60;;
67715;SDS011;54508;43.238;25.306;2023-04-05T04:42:43;3.67;;;3.10;;
67715;SDS011;54508;43.238;25.306;2023-04-05T04:45:17;4.95;;;3.20;;
67715;SDS011;54508;43.238;25.306;2023-04-05T04:47:44;3.42;;;3.00;;
67715;SDS011;54508;43.238;25.306;2023-04-05T04:50:11;3.58;;;3.28;;
67715;SDS011;54508;43.238;25.306;2023-04-05T04:52:38;4.40;;;3.38;;
67715;SDS011;54508;43.238;25.306;2023-04-05T04:55:05;4.47;;;3.45;;
67715;SDS011;54508;43.238;25.306;2023-04-05T04:57:32;3.55;;;3.25;;
67715;SDS011;54508;43.238;25.306;2023-04-05T04:59:57;3.97;;;3.15;;
67715;SDS011;54508;43.238;25.306;2023-04-05T05:02:23;4.68;;;3.55;;
67715;SDS011;54508;43.238;25.306;2023-04-05T05:04:49;6.10;;;3.20;;
67715;SDS011;54508;43.238;25.306;2023-04-05T05:07:15;3.90;;;3.28;;
67715;SDS011;54508;43.238;25.306;2023-04-05T05:09:41;3.90;;;3.50;;
67715;SDS011;54508;43.238;25.306;2023-04-05T05:12:07;5.43;;;3.22;;
67715;SDS011;54508;43.238;25.306;2023-04-05T05:14:32;5.70;;;3.40;;
67715;SDS011;54508;43.238;25.306;2023-04-05T05:16:58;4.13;;;3.10;;
67715;SDS011;54508;43.238;25.306;2023-04-05T05:19:23;3.43;;;2.90;;
67715;SDS011;54508;43.238;25.306;2023-04-05T05:21:49;3.92;;;3.00;;
67715;SDS011;54508;43.238;25.306;2023-04-05T05:24:17;6.95;;;2.90;;
67715;SDS011;54508;43.238;25.306;2023-04-05T05:26:42;4.47;;;2.77;;
67715;SDS011;54508;43.238;25.306;2023-04-05T05:29:08;4.30;;;2.80;;
67715;SDS011;54508;43.238;25.306;2023-04-05T05:31:33;3.58;;;2.80;;
